aviador You're here:

KMOB Decoded Metar

MOBILE in AL, USA
Report Time2017-07-26 05:56:00
UTC Time2017-07-26 06:36:47
Flight Rules vfr VFR
WindCalm
Visibility9999 m
Phenomena:N/A
Clouds:N/A
Expected CloudBase > 400 ft AGL from Temp-Dew spread
CeilingNone
Temp24°C (ISA +9)
Dew Point23°C (94% RH)
QNH1020 hPa
Density Alt1,434 ft
Elevation207 ft
Report Wrong Elevation
Raw Report
KMOB 260556Z AUTO 00000KT 10SM CLR 24/23 A3012 RMK AO2 SLP196
T02390228 10261 20239 402940228 50001=

Extra information for KMOB:More info

Metar Taf Metar & Taf Last 4 Metars F.Rules Stats Wind Profile Meteogram Temp Stats Airport Information Weather charts Add Link Nearby VenuesMetar ALERT Operation Metar Decoded Social comments

AIRNAV info for KMOB